createdAt,value
2022-12-06T00:00:32.792Z,0.00
2022-12-06T00:01:32.818Z,0.00
2022-12-06T00:02:32.880Z,0.00
2022-12-06T00:03:32.825Z,0.00
2022-12-06T00:04:32.887Z,0.00
2022-12-06T00:05:32.771Z,0.00
2022-12-06T00:06:32.751Z,0.00
2022-12-06T00:07:32.842Z,0.00
2022-12-06T00:08:32.739Z,0.00
2022-12-06T00:09:32.750Z,0.00
2022-12-06T00:10:32.758Z,0.00
2022-12-06T00:11:32.714Z,0.00
2022-12-06T00:12:32.749Z,0.00
2022-12-06T00:13:32.740Z,0.00
2022-12-06T00:14:32.723Z,0.00
2022-12-06T00:15:32.853Z,0.00
2022-12-06T00:16:32.812Z,0.00
2022-12-06T00:17:32.680Z,0.00
2022-12-06T00:18:32.702Z,0.00
2022-12-06T00:19:32.715Z,0.00
2022-12-06T00:20:32.722Z,0.00
2022-12-06T00:21:32.700Z,0.00
2022-12-06T00:22:32.698Z,0.00
2022-12-06T00:23:32.682Z,0.00
2022-12-06T00:24:32.706Z,0.00
2022-12-06T00:25:32.623Z,0.00
2022-12-06T00:26:32.707Z,0.00
2022-12-06T00:27:32.627Z,0.00
2022-12-06T00:28:32.642Z,0.00
2022-12-06T00:29:32.636Z,0.00
2022-12-06T00:30:32.646Z,0.00
2022-12-06T00:31:32.687Z,0.00
2022-12-06T00:32:32.633Z,0.00
2022-12-06T00:33:32.630Z,0.00
2022-12-06T00:34:32.627Z,0.00
2022-12-06T00:35:32.602Z,0.00
2022-12-06T00:36:32.591Z,0.00
2022-12-06T00:37:32.641Z,0.00
2022-12-06T00:38:32.597Z,0.00
2022-12-06T00:39:32.611Z,0.00
2022-12-06T00:40:32.553Z,0.00
2022-12-06T00:41:32.580Z,0.00
2022-12-06T00:42:32.574Z,0.00
2022-12-06T00:43:33.573Z,0.00
2022-12-06T00:44:32.555Z,0.00
2022-12-06T00:45:32.626Z,0.00
2022-12-06T00:46:32.633Z,0.00
2022-12-06T00:47:32.517Z,0.00
2022-12-06T00:48:32.569Z,0.00
2022-12-06T00:49:32.505Z,0.00
2022-12-06T00:50:32.536Z,0.00
2022-12-06T00:51:32.525Z,0.00
2022-12-06T00:52:32.529Z,0.00
2022-12-06T00:53:32.586Z,0.00
2022-12-06T00:54:32.518Z,0.00
2022-12-06T00:55:32.491Z,0.00
2022-12-06T00:56:32.485Z,0.00
2022-12-06T00:57:32.465Z,0.00
2022-12-06T00:58:32.482Z,0.00
2022-12-06T01:00:04.445Z,0.00
2022-12-06T01:00:32.455Z,0.00
2022-12-06T01:01:32.635Z,0.00
2022-12-06T01:02:32.472Z,0.00
2022-12-06T01:03:35.183Z,0.00
2022-12-06T01:04:33.415Z,0.00
2022-12-06T01:05:32.525Z,0.00
2022-12-06T01:06:32.499Z,0.00
2022-12-06T01:07:32.496Z,0.00
2022-12-06T01:08:32.428Z,0.00
2022-12-06T01:09:32.452Z,0.00
2022-12-06T01:10:32.478Z,0.00
2022-12-06T01:11:33.432Z,0.00
2022-12-06T01:12:32.443Z,0.00
2022-12-06T01:13:32.415Z,0.00
2022-12-06T01:14:32.353Z,0.00
2022-12-06T01:15:32.372Z,0.00
2022-12-06T01:16:32.537Z,0.00
2022-12-06T01:17:32.362Z,0.00
2022-12-06T01:18:32.375Z,0.00
2022-12-06T01:19:32.379Z,0.00
2022-12-06T01:20:32.364Z,0.00
2022-12-06T01:21:32.475Z,0.00
2022-12-06T01:22:32.343Z,0.00
2022-12-06T01:23:32.341Z,0.00
2022-12-06T01:24:32.330Z,0.00
2022-12-06T01:25:35.777Z,0.00
2022-12-06T01:26:33.984Z,0.00
2022-12-06T01:27:32.367Z,0.00
2022-12-06T01:28:32.311Z,0.00
2022-12-06T01:29:32.342Z,0.00
2022-12-06T01:30:32.320Z,0.00
2022-12-06T01:31:37.277Z,0.00
2022-12-06T01:32:33.323Z,0.00
2022-12-06T01:33:32.275Z,0.00
2022-12-06T01:34:32.294Z,0.00
2022-12-06T01:35:32.271Z,0.00
2022-12-06T01:36:32.298Z,0.00
2022-12-06T01:37:32.251Z,0.00
2022-12-06T01:38:32.272Z,0.00
2022-12-06T01:39:32.228Z,0.00
2022-12-06T01:40:32.265Z,0.00
2022-12-06T01:41:32.282Z,0.00
2022-12-06T01:42:32.281Z,0.00
2022-12-06T01:43:32.262Z,0.00
2022-12-06T01:44:32.241Z,0.00
2022-12-06T01:45:32.257Z,0.00
2022-12-06T01:46:32.322Z,0.00
2022-12-06T01:47:32.255Z,0.00
2022-12-06T01:48:32.238Z,0.00
2022-12-06T01:49:32.286Z,0.00
2022-12-06T01:50:32.175Z,0.00
2022-12-06T01:51:32.192Z,0.00
2022-12-06T01:52:32.203Z,0.00
2022-12-06T01:53:32.214Z,0.00
2022-12-06T01:54:32.190Z,0.00
2022-12-06T01:55:32.170Z,0.00
2022-12-06T01:56:32.144Z,0.00
2022-12-06T01:57:32.158Z,0.00
2022-12-06T01:58:32.202Z,0.00
2022-12-06T01:59:32.154Z,0.00
2022-12-06T02:00:32.139Z,0.00
2022-12-06T02:01:32.167Z,0.00
2022-12-06T02:02:32.191Z,0.00
2022-12-06T02:03:32.143Z,0.00
2022-12-06T02:04:32.164Z,0.00
2022-12-06T02:05:36.119Z,0.00
2022-12-06T02:06:34.087Z,0.00
2022-12-06T02:07:32.256Z,0.00
2022-12-06T02:08:32.105Z,0.00
2022-12-06T02:09:32.099Z,0.00
2022-12-06T02:10:32.082Z,0.00
2022-12-06T02:11:35.217Z,0.00
2022-12-06T02:12:33.124Z,0.00
2022-12-06T02:13:32.069Z,0.00
2022-12-06T02:14:32.204Z,0.00
2022-12-06T02:15:32.053Z,0.00
2022-12-06T02:16:32.276Z,0.00
2022-12-06T02:17:32.049Z,0.00
2022-12-06T02:18:32.041Z,0.00
2022-12-06T02:19:32.010Z,0.00
2022-12-06T02:20:32.145Z,0.00
2022-12-06T02:21:32.028Z,0.00
2022-12-06T02:22:31.992Z,0.00
2022-12-06T02:23:32.004Z,0.00
2022-12-06T02:24:32.022Z,0.00
2022-12-06T02:25:34.171Z,0.00
2022-12-06T02:26:32.968Z,0.00
2022-12-06T02:27:31.959Z,0.00
2022-12-06T02:28:32.009Z,0.00
2022-12-06T02:29:31.992Z,0.00
2022-12-06T02:30:32.999Z,0.00
2022-12-06T02:31:32.037Z,0.00
2022-12-06T02:32:31.943Z,0.00
2022-12-06T02:33:31.992Z,0.00
2022-12-06T02:34:31.956Z,0.00
2022-12-06T02:35:31.904Z,0.00
2022-12-06T02:36:31.954Z,0.00
2022-12-06T02:37:31.929Z,0.00
2022-12-06T02:38:31.935Z,0.00
2022-12-06T02:39:31.957Z,0.00
2022-12-06T02:40:31.925Z,0.00
2022-12-06T02:41:31.890Z,0.00
2022-12-06T02:42:31.952Z,0.00
2022-12-06T02:43:31.917Z,0.00
2022-12-06T02:44:31.910Z,0.00
2022-12-06T02:45:31.894Z,0.00
2022-12-06T02:46:31.942Z,0.00
2022-12-06T02:47:31.986Z,0.00
2022-12-06T02:48:31.873Z,0.00
2022-12-06T02:49:31.825Z,0.00
2022-12-06T02:50:31.854Z,0.00
2022-12-06T02:51:31.803Z,0.00
2022-12-06T02:52:31.825Z,0.00
2022-12-06T02:53:31.978Z,0.00
2022-12-06T02:54:31.807Z,0.00
2022-12-06T02:55:31.830Z,0.00
2022-12-06T02:56:31.810Z,0.00
2022-12-06T02:57:31.791Z,0.00
2022-12-06T02:58:31.909Z,0.00
2022-12-06T02:59:31.825Z,0.00
2022-12-06T03:00:31.777Z,0.00
2022-12-06T03:01:31.838Z,0.00
2022-12-06T03:02:31.822Z,0.00
2022-12-06T03:03:31.771Z,0.00
2022-12-06T03:04:31.871Z,0.00
2022-12-06T03:05:31.763Z,0.00
2022-12-06T03:06:31.709Z,0.00
2022-12-06T03:07:31.788Z,0.00
2022-12-06T03:08:31.752Z,0.00
2022-12-06T03:09:31.758Z,0.00
2022-12-06T03:10:31.743Z,0.00
2022-12-06T03:11:31.712Z,0.00
2022-12-06T03:12:31.713Z,0.00
2022-12-06T03:13:31.716Z,0.00
2022-12-06T03:14:31.715Z,0.00
2022-12-06T03:15:31.786Z,0.00
2022-12-06T03:16:31.711Z,0.00
2022-12-06T03:17:31.685Z,0.00
2022-12-06T03:18:31.724Z,0.00
2022-12-06T03:19:31.642Z,0.00
2022-12-06T03:20:31.725Z,0.00
2022-12-06T03:21:31.674Z,0.00
2022-12-06T03:22:34.508Z,0.00
2022-12-06T03:23:31.650Z,0.00
2022-12-06T03:24:31.645Z,0.00
2022-12-06T03:25:31.661Z,0.00
2022-12-06T03:26:31.715Z,0.00
2022-12-06T03:27:31.603Z,0.00
2022-12-06T03:28:31.594Z,0.00
2022-12-06T03:29:31.629Z,0.00
2022-12-06T03:30:31.620Z,0.00
2022-12-06T03:31:31.669Z,0.00
2022-12-06T03:32:31.641Z,0.00
2022-12-06T03:33:31.558Z,0.00
2022-12-06T03:34:31.632Z,0.00
2022-12-06T03:35:31.578Z,0.00
2022-12-06T03:36:31.607Z,0.00
2022-12-06T03:37:31.749Z,0.00
2022-12-06T03:38:31.563Z,0.00
2022-12-06T03:39:31.555Z,0.00
2022-12-06T03:40:31.583Z,0.00
2022-12-06T03:41:31.531Z,0.00
2022-12-06T03:42:31.555Z,0.00
2022-12-06T03:43:31.558Z,0.00
2022-12-06T03:44:31.535Z,0.00
2022-12-06T03:45:31.577Z,0.00
2022-12-06T03:46:31.652Z,0.00
2022-12-06T03:47:31.510Z,0.00
2022-12-06T03:48:31.687Z,0.00
2022-12-06T03:49:31.514Z,0.00
2022-12-06T03:50:31.526Z,0.00
2022-12-06T03:51:31.523Z,0.00
2022-12-06T03:52:31.479Z,0.00
2022-12-06T03:53:31.619Z,0.00
2022-12-06T03:54:31.475Z,0.00
2022-12-06T03:55:32.499Z,0.00
2022-12-06T03:56:31.513Z,0.00
2022-12-06T03:57:31.472Z,0.00
2022-12-06T03:58:31.515Z,0.00
2022-12-06T03:59:31.606Z,0.00
2022-12-06T04:00:31.440Z,0.00
2022-12-06T04:01:31.490Z,0.00
2022-12-06T04:02:31.433Z,0.00
2022-12-06T04:03:31.485Z,0.00
2022-12-06T04:04:31.569Z,0.00
2022-12-06T04:05:31.423Z,0.00
2022-12-06T04:06:31.450Z,0.00
2022-12-06T04:07:31.508Z,0.00
2022-12-06T04:08:31.373Z,0.00
2022-12-06T04:09:31.416Z,0.00
2022-12-06T04:10:31.474Z,0.00
2022-12-06T04:11:31.368Z,0.00
2022-12-06T04:12:31.468Z,0.00
2022-12-06T04:13:31.410Z,0.00
2022-12-06T04:14:31.473Z,0.00
2022-12-06T04:15:31.517Z,0.00
2022-12-06T04:16:31.403Z,0.00
2022-12-06T04:17:31.392Z,0.00
2022-12-06T04:18:31.397Z,0.00
2022-12-06T04:19:31.349Z,0.00
2022-12-06T04:20:31.373Z,0.00
2022-12-06T04:21:31.410Z,0.00
2022-12-06T04:22:31.377Z,0.00
2022-12-06T04:23:31.366Z,0.00
2022-12-06T04:24:31.308Z,0.00
2022-12-06T04:25:31.307Z,0.00
2022-12-06T04:26:31.460Z,0.00
2022-12-06T04:27:31.376Z,0.00
2022-12-06T04:28:31.316Z,0.00
2022-12-06T04:29:31.996Z,0.00
2022-12-06T04:30:31.287Z,0.00
2022-12-06T04:31:31.329Z,0.00
2022-12-06T04:32:31.289Z,0.00
2022-12-06T04:33:31.313Z,0.00
2022-12-06T04:34:31.306Z,0.00
2022-12-06T04:35:31.285Z,0.00
2022-12-06T04:36:31.258Z,0.00
2022-12-06T04:37:31.364Z,0.00
2022-12-06T04:38:31.245Z,0.00
2022-12-06T04:39:31.255Z,0.00
2022-12-06T04:40:31.240Z,0.00
2022-12-06T04:41:31.252Z,0.00
2022-12-06T04:42:31.256Z,0.00
2022-12-06T04:43:31.262Z,0.00
2022-12-06T04:44:31.219Z,0.00
2022-12-06T04:45:31.229Z,0.00
2022-12-06T04:46:31.255Z,0.00
2022-12-06T04:47:31.196Z,0.00
2022-12-06T04:48:31.285Z,0.00
2022-12-06T04:49:31.191Z,0.00
2022-12-06T04:50:31.194Z,0.00
2022-12-06T04:51:31.194Z,0.00
2022-12-06T04:52:35.414Z,0.00
2022-12-06T04:53:32.179Z,0.00
2022-12-06T04:54:31.152Z,0.00
2022-12-06T04:55:31.195Z,0.00
2022-12-06T04:56:31.191Z,0.00
2022-12-06T04:57:31.157Z,0.00
2022-12-06T04:58:31.148Z,0.00
2022-12-06T04:59:31.169Z,0.00
2022-12-06T05:00:31.193Z,0.00
2022-12-06T05:01:31.121Z,0.00
2022-12-06T05:02:31.148Z,0.00
2022-12-06T05:03:31.219Z,0.00
2022-12-06T05:04:31.130Z,0.00
2022-12-06T05:05:31.125Z,0.00
2022-12-06T05:06:31.098Z,0.00
2022-12-06T05:07:31.169Z,0.00
2022-12-06T05:08:31.133Z,0.00
2022-12-06T05:09:31.079Z,0.00
2022-12-06T05:10:31.186Z,0.00
2022-12-06T05:11:31.075Z,0.00
2022-12-06T05:12:31.090Z,0.00
2022-12-06T05:13:31.027Z,0.00
2022-12-06T05:14:31.086Z,0.00
2022-12-06T05:15:31.115Z,0.00
2022-12-06T05:16:31.138Z,0.00
2022-12-06T05:17:31.051Z,0.00
2022-12-06T05:18:31.041Z,0.00
2022-12-06T05:19:31.015Z,0.00
2022-12-06T05:20:31.011Z,0.00
2022-12-06T05:21:31.116Z,0.00
2022-12-06T05:22:31.036Z,0.00
2022-12-06T05:23:31.031Z,0.00
2022-12-06T05:24:30.963Z,0.00
2022-12-06T05:25:30.975Z,0.00
2022-12-06T05:26:31.044Z,0.00
2022-12-06T05:27:35.811Z,0.00
2022-12-06T05:28:31.988Z,0.00
2022-12-06T05:29:30.948Z,0.00
2022-12-06T05:30:30.996Z,0.00
2022-12-06T05:31:31.011Z,0.00
2022-12-06T05:32:30.984Z,0.00
2022-12-06T05:33:30.970Z,0.00
2022-12-06T05:34:31.000Z,0.00
2022-12-06T05:35:30.950Z,0.00
2022-12-06T05:36:30.947Z,0.00
2022-12-06T05:37:31.147Z,0.00
2022-12-06T05:38:30.955Z,0.00
2022-12-06T05:39:30.940Z,0.00
2022-12-06T05:40:30.946Z,0.00
2022-12-06T05:41:30.956Z,0.00
2022-12-06T05:42:30.962Z,0.00
2022-12-06T05:43:30.928Z,0.00
2022-12-06T05:44:30.938Z,0.00
2022-12-06T05:45:30.987Z,0.00
2022-12-06T05:46:30.868Z,0.00
2022-12-06T05:47:30.921Z,0.00
2022-12-06T05:48:30.883Z,0.00
2022-12-06T05:49:30.877Z,0.00
2022-12-06T05:50:30.873Z,0.00
2022-12-06T05:51:30.899Z,0.00
2022-12-06T05:52:30.860Z,0.00
2022-12-06T05:53:30.822Z,0.00
2022-12-06T05:54:30.879Z,0.00
2022-12-06T05:55:30.870Z,0.00
2022-12-06T05:56:30.861Z,0.00
2022-12-06T05:57:30.848Z,0.00
2022-12-06T05:58:30.824Z,0.00
2022-12-06T05:59:30.862Z,0.00
2022-12-06T06:00:30.794Z,0.00
2022-12-06T06:01:30.789Z,0.00
2022-12-06T06:02:31.172Z,0.00
2022-12-06T06:03:30.869Z,0.00
2022-12-06T06:04:30.779Z,0.00
2022-12-06T06:05:30.926Z,0.00
2022-12-06T06:06:30.795Z,0.00
2022-12-06T06:07:30.805Z,0.00
2022-12-06T06:08:30.807Z,0.00
2022-12-06T06:09:30.826Z,0.00
2022-12-06T06:10:30.753Z,0.00
2022-12-06T06:11:30.731Z,0.00
2022-12-06T06:12:30.730Z,0.00
2022-12-06T06:13:30.748Z,0.00
2022-12-06T06:14:30.753Z,0.00
2022-12-06T06:15:30.731Z,0.00
2022-12-06T06:16:31.864Z,0.00
2022-12-06T06:17:30.730Z,0.00
2022-12-06T06:18:30.701Z,0.00
2022-12-06T06:19:30.719Z,0.00
2022-12-06T06:20:30.692Z,0.00
2022-12-06T06:21:30.707Z,0.00
2022-12-06T06:22:30.739Z,0.00
2022-12-06T06:23:30.693Z,0.00
2022-12-06T06:24:30.652Z,0.00
2022-12-06T06:25:30.697Z,0.00
2022-12-06T06:26:31.144Z,0.00
2022-12-06T06:27:30.817Z,0.00
2022-12-06T06:28:30.632Z,0.00
2022-12-06T06:29:30.659Z,0.00
2022-12-06T06:30:30.682Z,0.00
2022-12-06T06:31:30.718Z,0.00
2022-12-06T06:32:30.621Z,0.00
2022-12-06T06:33:30.670Z,0.00
2022-12-06T06:34:30.637Z,0.00
2022-12-06T06:35:30.647Z,0.00
2022-12-06T06:36:30.637Z,0.00
2022-12-06T06:37:30.651Z,0.00
2022-12-06T06:38:30.673Z,0.00
2022-12-06T06:39:30.591Z,0.00
2022-12-06T06:40:30.617Z,0.00
2022-12-06T06:41:30.579Z,0.00
2022-12-06T06:42:30.620Z,0.00
2022-12-06T06:43:30.578Z,0.00
2022-12-06T06:44:30.622Z,4.00
2022-12-06T06:45:30.555Z,4.00
2022-12-06T06:46:30.580Z,4.00
2022-12-06T06:47:30.548Z,4.00
2022-12-06T06:48:30.577Z,0.00
2022-12-06T06:49:30.588Z,0.00
2022-12-06T06:50:30.568Z,4.00
2022-12-06T06:51:30.516Z,4.00
2022-12-06T06:52:30.544Z,4.00
2022-12-06T06:53:30.564Z,4.00
2022-12-06T06:54:30.526Z,4.00
2022-12-06T06:55:30.609Z,8.00
2022-12-06T06:56:30.533Z,4.00
2022-12-06T06:57:30.473Z,8.00
2022-12-06T06:58:30.499Z,8.00
2022-12-06T06:59:30.482Z,8.00
2022-12-06T07:01:02.605Z,8.00
2022-12-06T07:01:30.540Z,12.00
2022-12-06T07:02:30.531Z,8.00
2022-12-06T07:03:30.454Z,12.00
2022-12-06T07:04:30.488Z,16.00
2022-12-06T07:05:30.448Z,16.00
2022-12-06T07:06:30.507Z,16.00
2022-12-06T07:07:30.472Z,16.00
2022-12-06T07:08:30.447Z,16.00
2022-12-06T07:09:30.407Z,16.00
2022-12-06T07:10:30.457Z,20.00
2022-12-06T07:11:30.481Z,20.00
2022-12-06T07:12:30.417Z,24.00
2022-12-06T07:13:30.438Z,28.00
2022-12-06T07:14:30.418Z,24.00
2022-12-06T07:15:30.436Z,28.00
2022-12-06T07:16:30.510Z,28.00
2022-12-06T07:17:31.434Z,32.00
2022-12-06T07:18:30.414Z,28.00
2022-12-06T07:19:30.417Z,32.00
2022-12-06T07:20:30.392Z,32.00
2022-12-06T07:21:30.422Z,32.00
2022-12-06T07:22:30.500Z,40.00
2022-12-06T07:23:30.396Z,40.00
2022-12-06T07:24:30.369Z,44.00
2022-12-06T07:25:30.388Z,44.00
2022-12-06T07:26:30.347Z,48.00
2022-12-06T07:27:30.347Z,60.00
2022-12-06T07:28:30.372Z,68.00
2022-12-06T07:29:30.339Z,76.00
2022-12-06T07:30:30.351Z,80.00
2022-12-06T07:31:30.372Z,84.00
2022-12-06T07:32:30.315Z,88.00
2022-12-06T07:33:30.327Z,92.00
2022-12-06T07:34:30.350Z,96.00
2022-12-06T07:35:55.456Z,112.00
2022-12-06T07:36:31.403Z,124.00
2022-12-06T07:37:30.278Z,136.00
2022-12-06T07:38:30.296Z,136.00
2022-12-06T07:39:30.480Z,124.00
2022-12-06T07:40:56.018Z,120.00
2022-12-06T07:41:31.293Z,120.00
2022-12-06T07:42:30.237Z,116.00
2022-12-06T07:43:30.244Z,120.00
2022-12-06T07:44:30.353Z,128.00
2022-12-06T07:45:30.256Z,132.00
2022-12-06T07:46:30.335Z,132.00
2022-12-06T07:47:30.236Z,136.00
2022-12-06T07:48:30.214Z,140.00
2022-12-06T07:49:30.236Z,144.00
2022-12-06T07:50:30.322Z,148.00
2022-12-06T07:51:30.201Z,160.00
2022-12-06T07:52:30.193Z,164.00
2022-12-06T07:53:30.178Z,176.00
2022-12-06T07:54:30.224Z,180.00
2022-12-06T07:55:30.240Z,176.00
2022-12-06T07:56:30.206Z,176.00
2022-12-06T07:57:30.210Z,176.00
2022-12-06T07:58:30.199Z,172.00
2022-12-06T07:59:30.213Z,168.00
2022-12-06T08:00:30.187Z,168.00
2022-12-06T08:01:30.336Z,176.00
2022-12-06T08:02:30.170Z,184.00
2022-12-06T08:03:30.158Z,208.00
2022-12-06T08:04:30.219Z,236.00
2022-12-06T08:05:30.174Z,244.00
2022-12-06T08:06:30.215Z,240.00
2022-12-06T08:07:30.154Z,256.00
2022-12-06T08:08:30.208Z,268.00
2022-12-06T08:09:30.100Z,256.00
2022-12-06T08:10:30.127Z,256.00
2022-12-06T08:11:30.097Z,268.00
2022-12-06T08:12:31.061Z,280.00
2022-12-06T08:13:30.118Z,296.00
2022-12-06T08:14:30.161Z,292.00
2022-12-06T08:15:30.066Z,304.00
2022-12-06T08:16:30.167Z,316.00
2022-12-06T08:17:30.115Z,316.00
2022-12-06T08:18:30.081Z,324.00
2022-12-06T08:19:30.065Z,324.00
2022-12-06T08:20:30.068Z,316.00
2022-12-06T08:21:30.036Z,312.00
2022-12-06T08:22:30.065Z,312.00
2022-12-06T08:23:34.181Z,312.00
2022-12-06T08:24:30.053Z,308.00
2022-12-06T08:25:30.051Z,300.00
2022-12-06T08:26:30.018Z,312.00
2022-12-06T08:27:30.056Z,304.00
2022-12-06T08:28:30.093Z,288.00
2022-12-06T08:29:30.033Z,284.00
2022-12-06T08:30:30.022Z,292.00
2022-12-06T08:31:30.110Z,300.00
2022-12-06T08:32:29.994Z,308.00
2022-12-06T08:33:29.999Z,320.00
2022-12-06T08:34:30.116Z,336.00
2022-12-06T08:35:30.012Z,356.00
2022-12-06T08:36:29.963Z,372.00
2022-12-06T08:37:29.969Z,388.00
2022-12-06T08:38:29.950Z,408.00
2022-12-06T08:39:30.004Z,408.00
2022-12-06T08:40:29.952Z,420.00
2022-12-06T08:41:29.974Z,432.00
2022-12-06T08:42:29.965Z,428.00
2022-12-06T08:43:29.956Z,424.00
2022-12-06T08:44:29.923Z,424.00
2022-12-06T08:45:30.061Z,436.00
2022-12-06T08:46:30.082Z,436.00
2022-12-06T08:47:29.903Z,436.00
2022-12-06T08:48:29.922Z,436.00
2022-12-06T08:49:29.911Z,436.00
2022-12-06T08:50:29.922Z,468.00
2022-12-06T08:51:29.887Z,488.00
2022-12-06T08:52:29.870Z,492.00
2022-12-06T08:53:29.872Z,520.00
2022-12-06T08:54:29.899Z,528.00
2022-12-06T08:55:29.889Z,492.00
2022-12-06T08:56:30.008Z,472.00
2022-12-06T08:57:29.859Z,460.00
2022-12-06T08:58:29.886Z,456.00
2022-12-06T08:59:29.841Z,444.00
2022-12-06T09:00:29.865Z,440.00
2022-12-06T09:01:35.706Z,432.00
2022-12-06T09:02:31.844Z,444.00
2022-12-06T09:03:29.810Z,460.00
2022-12-06T09:04:29.927Z,476.00
2022-12-06T09:05:29.804Z,476.00
2022-12-06T09:06:29.806Z,464.00
2022-12-06T09:07:29.937Z,476.00
2022-12-06T09:08:29.845Z,476.00
2022-12-06T09:09:29.823Z,480.00
2022-12-06T09:10:29.786Z,500.00
2022-12-06T09:11:29.795Z,540.00
2022-12-06T09:12:29.778Z,568.00
2022-12-06T09:13:29.806Z,568.00
2022-12-06T09:14:29.774Z,568.00
2022-12-06T09:15:29.778Z,592.00
2022-12-06T09:16:29.779Z,592.00
2022-12-06T09:17:29.742Z,556.00
2022-12-06T09:18:29.846Z,544.00
2022-12-06T09:19:29.771Z,516.00
2022-12-06T09:20:29.731Z,496.00
2022-12-06T09:21:29.725Z,484.00
2022-12-06T09:22:29.734Z,496.00
2022-12-06T09:23:29.731Z,516.00
2022-12-06T09:24:29.734Z,520.00
2022-12-06T09:25:29.713Z,520.00
2022-12-06T09:26:29.716Z,508.00
2022-12-06T09:27:29.693Z,512.00
2022-12-06T09:28:29.712Z,520.00
2022-12-06T09:29:29.812Z,524.00
2022-12-06T09:30:29.698Z,544.00
2022-12-06T09:31:29.725Z,540.00
2022-12-06T09:32:29.661Z,544.00
2022-12-06T09:33:29.689Z,540.00
2022-12-06T09:34:29.796Z,552.00
2022-12-06T09:35:29.644Z,568.00
2022-12-06T09:36:29.651Z,616.00
2022-12-06T09:37:29.663Z,608.00
2022-12-06T09:38:29.630Z,620.00
2022-12-06T09:39:29.651Z,664.00
2022-12-06T09:40:29.642Z,692.00
2022-12-06T09:41:29.637Z,676.00
2022-12-06T09:42:29.620Z,676.00
2022-12-06T09:43:29.670Z,708.00
2022-12-06T09:44:29.616Z,720.00
2022-12-06T09:45:29.738Z,724.00
2022-12-06T09:46:29.700Z,752.00
2022-12-06T09:47:29.559Z,776.00
2022-12-06T09:48:29.596Z,768.00
2022-12-06T09:49:29.596Z,748.00
2022-12-06T09:50:30.578Z,740.00
2022-12-06T09:51:29.604Z,756.00
2022-12-06T09:52:29.558Z,780.00
2022-12-06T09:53:29.519Z,780.00
2022-12-06T09:54:29.556Z,776.00
2022-12-06T09:55:29.550Z,776.00
2022-12-06T09:56:29.556Z,772.00
2022-12-06T09:57:29.538Z,764.00
2022-12-06T09:58:29.573Z,756.00
2022-12-06T09:59:29.510Z,768.00
2022-12-06T10:00:29.509Z,772.00
2022-12-06T10:01:29.691Z,776.00
2022-12-06T10:02:29.550Z,776.00
2022-12-06T10:03:29.594Z,780.00
2022-12-06T10:04:29.487Z,780.00
2022-12-06T10:05:29.490Z,796.00
2022-12-06T10:06:29.469Z,812.00
2022-12-06T10:07:29.514Z,808.00
2022-12-06T10:08:29.613Z,804.00
2022-12-06T10:09:29.491Z,836.00
2022-12-06T10:10:29.447Z,836.00
2022-12-06T10:11:29.518Z,844.00
2022-12-06T10:12:29.444Z,848.00
2022-12-06T10:13:29.461Z,820.00
2022-12-06T10:14:29.513Z,764.00
2022-12-06T10:15:29.439Z,736.00
2022-12-06T10:16:29.500Z,748.00
2022-12-06T10:17:29.418Z,752.00
2022-12-06T10:18:30.109Z,760.00
2022-12-06T10:19:29.499Z,768.00
2022-12-06T10:20:29.395Z,772.00
2022-12-06T10:21:29.467Z,760.00
2022-12-06T10:22:29.391Z,756.00
2022-12-06T10:23:29.505Z,776.00
2022-12-06T10:24:29.364Z,740.00
2022-12-06T10:25:29.437Z,696.00
2022-12-06T10:26:29.385Z,700.00
2022-12-06T10:27:29.384Z,736.00
2022-12-06T10:28:29.394Z,752.00
2022-12-06T10:29:30.034Z,744.00
2022-12-06T10:30:29.317Z,768.00
2022-12-06T10:31:29.437Z,820.00
2022-12-06T10:32:29.348Z,840.00
2022-12-06T10:33:29.319Z,840.00
2022-12-06T10:34:29.452Z,856.00
2022-12-06T10:35:29.350Z,868.00
2022-12-06T10:36:29.323Z,848.00
2022-12-06T10:37:29.304Z,856.00
2022-12-06T10:38:29.284Z,868.00
2022-12-06T10:39:29.303Z,872.00
2022-12-06T10:40:29.325Z,860.00
2022-12-06T10:41:29.334Z,860.00
2022-12-06T10:42:29.279Z,848.00
2022-12-06T10:43:29.254Z,832.00
2022-12-06T10:44:29.270Z,828.00
2022-12-06T10:45:29.300Z,832.00
2022-12-06T10:46:29.331Z,840.00
2022-12-06T10:47:29.237Z,860.00
2022-12-06T10:48:29.229Z,856.00
2022-12-06T10:49:29.268Z,868.00
2022-12-06T10:50:29.239Z,864.00
2022-12-06T10:51:29.278Z,864.00
2022-12-06T10:52:29.215Z,852.00
2022-12-06T10:53:29.242Z,848.00
2022-12-06T10:54:29.197Z,840.00
2022-12-06T10:55:29.193Z,820.00
2022-12-06T10:56:29.223Z,792.00
2022-12-06T10:57:29.195Z,816.00
2022-12-06T10:58:29.190Z,840.00
2022-12-06T10:59:29.168Z,844.00
2022-12-06T11:00:29.279Z,840.00
2022-12-06T11:01:29.217Z,828.00
2022-12-06T11:02:29.258Z,840.00
2022-12-06T11:03:29.169Z,848.00
2022-12-06T11:04:29.128Z,872.00
2022-12-06T11:05:29.133Z,864.00
2022-12-06T11:06:29.146Z,864.00
2022-12-06T11:07:29.258Z,848.00
2022-12-06T11:08:29.172Z,840.00
2022-12-06T11:09:29.092Z,820.00
2022-12-06T11:10:29.120Z,820.00
2022-12-06T11:11:29.142Z,836.00
2022-12-06T11:12:31.455Z,860.00
2022-12-06T11:13:30.113Z,868.00
2022-12-06T11:14:29.114Z,884.00
2022-12-06T11:15:29.077Z,864.00
2022-12-06T11:16:29.139Z,852.00
2022-12-06T11:17:29.208Z,848.00
2022-12-06T11:18:29.079Z,848.00
2022-12-06T11:19:29.082Z,868.00
2022-12-06T11:20:29.034Z,936.00
2022-12-06T11:21:29.013Z,912.00
2022-12-06T11:22:29.028Z,968.00
2022-12-06T11:23:29.061Z,984.00
2022-12-06T11:24:29.004Z,1004.00
2022-12-06T11:25:29.044Z,1048.00
2022-12-06T11:26:29.023Z,1056.00
2022-12-06T11:27:29.001Z,1036.00
2022-12-06T11:28:29.034Z,1012.00
2022-12-06T11:29:29.007Z,1012.00
2022-12-06T11:30:28.979Z,1020.00
2022-12-06T11:31:29.089Z,1000.00
2022-12-06T11:32:29.017Z,996.00
2022-12-06T11:33:28.966Z,1016.00
2022-12-06T11:34:29.083Z,1012.00
2022-12-06T11:35:28.975Z,1040.00
2022-12-06T11:36:28.967Z,1080.00
2022-12-06T11:37:28.952Z,1124.00
2022-12-06T11:38:29.152Z,1176.00
2022-12-06T11:39:28.993Z,1208.00
2022-12-06T11:40:28.950Z,1232.00
2022-12-06T11:41:28.919Z,1240.00
2022-12-06T11:42:28.925Z,1268.00
2022-12-06T11:43:28.918Z,1300.00
2022-12-06T11:44:28.906Z,1268.00
2022-12-06T11:45:28.956Z,1192.00
2022-12-06T11:46:28.953Z,1152.00
2022-12-06T11:47:28.937Z,1104.00
2022-12-06T11:48:28.876Z,1084.00
2022-12-06T11:49:28.894Z,1116.00
2022-12-06T11:50:28.937Z,1148.00
2022-12-06T11:51:28.834Z,1164.00
2022-12-06T11:52:28.870Z,1152.00
2022-12-06T11:53:28.858Z,1124.00
2022-12-06T11:54:28.821Z,1060.00
2022-12-06T11:55:28.831Z,1032.00
2022-12-06T11:56:28.852Z,996.00
2022-12-06T11:57:28.837Z,996.00
2022-12-06T11:58:28.841Z,988.00
2022-12-06T11:59:28.784Z,940.00
2022-12-06T12:00:31.056Z,920.00
2022-12-06T12:01:28.927Z,872.00
2022-12-06T12:02:28.900Z,800.00
2022-12-06T12:03:28.877Z,756.00
2022-12-06T12:04:28.793Z,776.00
2022-12-06T12:05:28.748Z,780.00
2022-12-06T12:06:28.781Z,772.00
2022-12-06T12:07:28.836Z,760.00
2022-12-06T12:08:32.607Z,772.00
2022-12-06T12:09:29.793Z,792.00
2022-12-06T12:10:28.758Z,780.00
2022-12-06T12:11:28.733Z,760.00
2022-12-06T12:12:28.781Z,772.00
2022-12-06T12:13:28.744Z,844.00
2022-12-06T12:14:28.696Z,872.00
2022-12-06T12:15:28.721Z,876.00
2022-12-06T12:16:28.773Z,876.00
2022-12-06T12:17:28.696Z,864.00
2022-12-06T12:18:28.738Z,840.00
2022-12-06T12:19:28.684Z,808.00
2022-12-06T12:20:28.701Z,752.00
2022-12-06T12:21:28.716Z,764.00
2022-12-06T12:22:28.668Z,804.00
2022-12-06T12:23:28.670Z,812.00
2022-12-06T12:24:28.683Z,764.00
2022-12-06T12:25:28.634Z,744.00
2022-12-06T12:26:28.638Z,776.00
2022-12-06T12:27:28.854Z,844.00
2022-12-06T12:28:28.655Z,880.00
2022-12-06T12:29:28.789Z,852.00
2022-12-06T12:30:28.639Z,784.00
2022-12-06T12:31:28.674Z,752.00
2022-12-06T12:32:28.619Z,732.00
2022-12-06T12:33:28.617Z,732.00
2022-12-06T12:34:28.623Z,776.00
2022-12-06T12:35:28.620Z,764.00
2022-12-06T12:36:28.607Z,756.00
2022-12-06T12:37:28.563Z,756.00
2022-12-06T12:38:28.595Z,728.00
2022-12-06T12:39:28.567Z,692.00
2022-12-06T12:40:28.619Z,664.00
2022-12-06T12:41:28.558Z,636.00
2022-12-06T12:42:28.578Z,640.00
2022-12-06T12:43:28.549Z,672.00
2022-12-06T12:44:37.732Z,732.00
2022-12-06T12:45:30.717Z,844.00
2022-12-06T12:46:28.574Z,832.00
2022-12-06T12:47:28.531Z,748.00
2022-12-06T12:48:28.512Z,704.00
2022-12-06T12:49:28.531Z,676.00
2022-12-06T12:50:28.510Z,672.00
2022-12-06T12:51:29.509Z,672.00
2022-12-06T12:52:28.520Z,680.00
2022-12-06T12:53:28.500Z,660.00
2022-12-06T12:54:28.513Z,632.00